createdAt,value
2022-12-15T00:00:40.865Z,67.19
2022-12-15T00:06:02.509Z,66.86
2022-12-15T00:11:23.950Z,66.82
2022-12-15T00:16:45.610Z,66.65
2022-12-15T00:22:07.096Z,66.71
2022-12-15T00:27:28.753Z,66.82
2022-12-15T00:32:51.159Z,66.34
2022-12-15T00:38:12.732Z,66.46
2022-12-15T00:43:15.749Z,66.69
2022-12-15T00:48:18.809Z,66.39
2022-12-15T00:53:41.544Z,66.51
2022-12-15T00:59:03.051Z,66.07
2022-12-15T01:04:24.701Z,65.97
2022-12-15T01:09:46.330Z,65.97
2022-12-15T01:15:07.816Z,66.47
2022-12-15T01:20:20.535Z,66.70
2022-12-15T01:25:25.844Z,66.46
2022-12-15T01:30:28.893Z,66.50
2022-12-15T01:35:32.529Z,66.29
2022-12-15T01:40:47.714Z,66.57
2022-12-15T01:46:12.056Z,66.56
2022-12-15T01:51:20.778Z,66.75
2022-12-15T01:56:26.506Z,66.74
2022-12-15T02:01:30.183Z,66.92
2022-12-15T02:06:33.630Z,67.01
2022-12-15T02:12:01.541Z,66.81
2022-12-15T02:17:23.261Z,67.08
2022-12-15T02:22:50.935Z,67.05
2022-12-15T02:28:02.946Z,67.11
2022-12-15T02:33:24.506Z,67.16
2022-12-15T02:38:35.804Z,67.32
2022-12-15T02:43:39.317Z,67.74
2022-12-15T02:49:08.813Z,68.06
2022-12-15T02:54:24.488Z,67.41
2022-12-15T02:59:45.959Z,67.53
2022-12-15T03:04:56.742Z,67.37
2022-12-15T03:10:03.409Z,67.41
2022-12-15T03:15:07.080Z,67.62
2022-12-15T03:20:10.857Z,67.17
2022-12-15T03:25:14.001Z,66.90
2022-12-15T03:30:17.568Z,66.93
2022-12-15T03:35:21.078Z,66.51
2022-12-15T03:40:24.181Z,66.03
2022-12-15T03:45:28.986Z,66.33
2022-12-15T03:50:32.025Z,66.04
2022-12-15T03:55:35.662Z,65.63
2022-12-15T04:00:39.537Z,66.22
2022-12-15T04:05:42.606Z,65.54
2022-12-15T04:10:45.669Z,66.45
2022-12-15T04:15:48.783Z,66.32
2022-12-15T04:20:51.828Z,66.25
2022-12-15T04:26:14.167Z,66.27
2022-12-15T04:31:39.472Z,66.37
2022-12-15T04:37:04.647Z,66.45
2022-12-15T04:42:26.236Z,67.03
2022-12-15T04:47:48.400Z,67.46
2022-12-15T04:53:10.359Z,67.28
2022-12-15T04:58:32.200Z,67.46
2022-12-15T05:03:53.751Z,67.64
2022-12-15T05:09:15.329Z,67.09
2022-12-15T05:14:37.043Z,67.45
2022-12-15T05:19:58.346Z,68.14
2022-12-15T05:25:19.824Z,68.34
2022-12-15T05:30:41.440Z,68.34
2022-12-15T05:35:45.419Z,67.93
2022-12-15T05:40:48.511Z,67.71
2022-12-15T05:45:51.824Z,66.92
2022-12-15T05:50:55.107Z,66.61
2022-12-15T05:56:11.865Z,65.64
2022-12-15T06:01:17.826Z,65.19
2022-12-15T06:06:21.507Z,65.70
2022-12-15T06:11:24.667Z,66.11
2022-12-15T06:16:30.619Z,65.31
2022-12-15T06:21:36.327Z,64.99
2022-12-15T06:26:40.639Z,65.03
2022-12-15T06:31:43.857Z,64.51
2022-12-15T06:36:47.020Z,64.81
2022-12-15T06:41:50.014Z,65.38
2022-12-15T06:46:53.144Z,64.06
2022-12-15T06:51:56.238Z,64.04
2022-12-15T06:56:59.205Z,64.29
2022-12-15T07:02:02.465Z,63.78
2022-12-15T07:07:05.675Z,62.53
2022-12-15T07:12:12.034Z,63.96
2022-12-15T07:17:15.096Z,63.77
2022-12-15T07:22:18.080Z,62.77
2022-12-15T07:27:43.223Z,61.63
2022-12-15T07:32:49.897Z,62.20
2022-12-15T07:37:53.646Z,61.12
2022-12-15T07:42:56.749Z,62.27
2022-12-15T07:47:59.755Z,60.68
2022-12-15T07:53:03.000Z,61.02
2022-12-15T07:58:06.049Z,60.53
2022-12-15T08:03:09.267Z,61.37
2022-12-15T08:08:15.289Z,60.65
2022-12-15T08:13:52.559Z,61.87
2022-12-15T08:18:41.751Z,61.87
2022-12-15T08:23:45.389Z,62.02
2022-12-15T08:28:48.455Z,62.91
2022-12-15T08:33:52.068Z,63.06
2022-12-15T08:38:57.757Z,62.69
2022-12-15T08:44:01.937Z,63.75
2022-12-15T08:49:05.195Z,63.25
2022-12-15T08:54:09.441Z,61.94
2022-12-15T08:59:12.553Z,62.41
2022-12-15T09:04:16.013Z,61.40
2022-12-15T09:09:19.844Z,62.10
2022-12-15T09:14:28.882Z,60.65
2022-12-15T09:19:32.646Z,61.25
2022-12-15T09:24:35.859Z,60.88
2022-12-15T09:29:38.924Z,61.46
2022-12-15T09:34:42.236Z,61.36
2022-12-15T09:39:45.212Z,61.71
2022-12-15T09:44:50.785Z,61.80
2022-12-15T09:49:59.152Z,61.61
2022-12-15T10:00:45.615Z,63.28
2022-12-15T10:06:16.069Z,62.40
2022-12-15T10:11:24.569Z,62.91
2022-12-15T10:16:51.439Z,62.61
2022-12-15T10:21:54.531Z,63.23
2022-12-15T10:27:25.036Z,62.64
2022-12-15T10:32:51.322Z,63.16
2022-12-15T10:38:00.319Z,63.10
2022-12-15T10:43:14.696Z,62.41
2022-12-15T10:48:20.774Z,62.48
2022-12-15T10:53:41.759Z,63.51
2022-12-15T10:58:52.084Z,63.23
2022-12-15T11:03:57.181Z,63.62
2022-12-15T11:09:25.725Z,64.13
2022-12-15T11:14:46.093Z,64.30
2022-12-15T11:20:02.233Z,64.53
2022-12-15T11:25:25.380Z,65.58
2022-12-15T11:30:42.772Z,65.36
2022-12-15T11:36:41.433Z,64.93
2022-12-15T11:41:56.052Z,65.13
2022-12-15T11:47:27.964Z,64.43
2022-12-15T11:52:56.094Z,65.75
2022-12-15T11:58:10.881Z,65.20
2022-12-15T12:03:38.991Z,65.95
2022-12-15T12:09:08.689Z,65.29
2022-12-15T12:19:58.190Z,65.46
2022-12-15T12:25:22.217Z,65.79
2022-12-15T12:30:29.642Z,65.57
2022-12-15T12:35:41.642Z,65.95
2022-12-15T12:46:36.586Z,67.38
2022-12-15T12:52:05.480Z,66.54
2022-12-15T13:02:31.331Z,67.58
2022-12-15T13:07:42.111Z,68.37
2022-12-15T13:12:54.191Z,68.84
2022-12-15T13:18:06.812Z,68.85
2022-12-15T13:23:21.901Z,70.01
2022-12-15T13:28:38.540Z,70.08
2022-12-15T13:33:50.731Z,69.69
2022-12-15T13:38:56.683Z,70.42
2022-12-15T13:44:01.565Z,70.96
2022-12-15T13:49:37.779Z,70.49
2022-12-15T13:54:48.465Z,70.60
2022-12-15T14:00:05.592Z,71.26
2022-12-15T14:05:19.275Z,71.87
2022-12-15T14:10:30.336Z,70.90
2022-12-15T14:15:35.722Z,71.69
2022-12-15T14:20:43.115Z,71.76
2022-12-15T14:26:16.597Z,71.26
2022-12-15T14:31:24.907Z,71.92
2022-12-15T14:36:28.972Z,71.85
2022-12-15T14:41:44.117Z,72.77
2022-12-15T14:46:52.102Z,72.58
2022-12-15T14:52:02.279Z,72.84
2022-12-15T14:57:28.738Z,72.83
2022-12-15T15:02:31.993Z,72.57
2022-12-15T15:07:46.341Z,73.24
2022-12-15T15:12:49.869Z,73.31
2022-12-15T15:17:59.329Z,73.61
2022-12-15T15:23:08.090Z,73.79
2022-12-15T15:28:20.283Z,73.84
2022-12-15T15:33:23.986Z,74.25
2022-12-15T15:38:33.931Z,74.08
2022-12-15T15:43:37.371Z,74.07
2022-12-15T15:48:54.300Z,74.30
2022-12-15T15:54:01.460Z,75.28
2022-12-15T15:59:12.438Z,75.16
2022-12-15T16:04:15.661Z,74.72
2022-12-15T16:09:18.772Z,74.24
2022-12-15T16:14:21.910Z,74.34
2022-12-15T16:19:27.992Z,74.77
2022-12-15T16:24:31.110Z,74.79
2022-12-15T16:29:34.337Z,74.69
2022-12-15T16:34:37.397Z,74.28
2022-12-15T16:39:40.604Z,73.73
2022-12-15T16:44:43.791Z,73.67
2022-12-15T16:49:47.052Z,73.64
2022-12-15T16:54:51.025Z,73.86
2022-12-15T16:59:54.128Z,73.54
2022-12-15T17:04:57.193Z,72.80
2022-12-15T17:10:00.239Z,73.22
2022-12-15T17:15:09.281Z,73.77
2022-12-15T17:20:30.532Z,72.77
2022-12-15T17:31:06.176Z,73.16
2022-12-15T17:36:29.463Z,72.91
2022-12-15T17:41:58.660Z,72.76
2022-12-15T17:46:55.618Z,73.22
2022-12-15T17:52:02.743Z,73.98
2022-12-15T17:57:05.793Z,74.26
2022-12-15T18:02:13.442Z,74.19
2022-12-15T18:07:19.886Z,73.92
2022-12-15T18:12:26.467Z,74.34
2022-12-15T18:17:29.572Z,73.56
2022-12-15T18:22:32.603Z,73.41
2022-12-15T18:27:35.630Z,73.59
2022-12-15T18:32:42.319Z,73.53
2022-12-15T18:37:45.721Z,73.90
2022-12-15T18:42:49.363Z,73.13
2022-12-15T18:47:54.357Z,73.46
2022-12-15T18:53:05.447Z,73.74
2022-12-15T18:58:28.985Z,73.53
2022-12-15T19:03:33.200Z,73.05
2022-12-15T19:08:38.911Z,73.65
2022-12-15T19:13:41.945Z,74.33
2022-12-15T19:19:04.179Z,73.99
2022-12-15T19:24:11.228Z,74.14
2022-12-15T19:29:22.952Z,74.29
2022-12-15T19:34:25.965Z,73.28
2022-12-15T19:39:30.510Z,73.57
2022-12-15T19:44:33.453Z,74.24
2022-12-15T19:49:36.486Z,74.70
2022-12-15T19:54:40.082Z,74.02
2022-12-15T19:59:43.157Z,74.47
2022-12-15T20:04:47.632Z,74.43
2022-12-15T20:09:50.678Z,73.88
2022-12-15T20:20:14.423Z,74.06
2022-12-15T20:25:20.350Z,73.97
2022-12-15T20:30:30.216Z,73.74
2022-12-15T20:35:35.864Z,73.63
2022-12-15T20:40:38.910Z,73.58
2022-12-15T20:45:42.118Z,73.14
2022-12-15T20:56:05.077Z,73.25
2022-12-15T21:01:24.572Z,73.04
2022-12-15T21:06:28.999Z,72.67
2022-12-15T21:11:33.387Z,72.72
2022-12-15T21:16:36.435Z,73.67
2022-12-15T21:21:43.967Z,72.78
2022-12-15T21:26:47.411Z,73.35
2022-12-15T21:31:51.114Z,73.44
2022-12-15T21:36:55.052Z,72.97
2022-12-15T21:42:00.574Z,72.74
2022-12-15T21:47:48.261Z,72.95
2022-12-15T21:52:51.577Z,72.93
2022-12-15T21:57:57.892Z,72.27
2022-12-15T22:03:01.209Z,72.73
2022-12-15T22:08:16.367Z,72.34
2022-12-15T22:13:21.562Z,72.44
2022-12-15T22:18:24.553Z,72.54
2022-12-15T22:23:27.592Z,73.06
2022-12-15T22:28:30.826Z,72.44
2022-12-15T22:33:39.713Z,72.94
2022-12-15T22:38:48.794Z,72.76
2022-12-15T22:43:54.911Z,72.32
2022-12-15T22:48:58.017Z,72.88
2022-12-15T22:54:01.818Z,72.56
2022-12-15T22:59:10.750Z,71.56
2022-12-15T23:09:32.396Z,72.67
2022-12-15T23:14:53.621Z,72.04
2022-12-15T23:19:57.947Z,71.71
2022-12-15T23:25:00.904Z,71.61
2022-12-15T23:30:04.694Z,71.53
2022-12-15T23:35:07.972Z,71.50
2022-12-15T23:40:11.526Z,71.50
2022-12-15T23:45:16.339Z,70.93
2022-12-15T23:50:19.538Z,71.34
2022-12-15T23:55:22.586Z,70.17
